createdAt,value
2022-11-02T04:35:05.297Z,45.13
2022-11-02T04:40:24.567Z,44.70
2022-11-02T04:45:31.139Z,36.57
2022-11-02T04:50:44.030Z,37.37
2022-11-02T04:55:53.207Z,38.70
2022-11-02T05:01:01.323Z,37.80
2022-11-02T05:07:01.652Z,38.90
2022-11-02T05:23:31.207Z,32.27
2022-11-02T05:28:47.778Z,30.93
2022-11-02T07:23:53.001Z,18.17
2022-11-02T07:46:34.780Z,15.07
2022-11-02T07:52:21.296Z,21.10
2022-11-02T09:27:18.396Z,15.20
2022-11-02T09:38:34.098Z,15.80
2022-11-02T09:52:23.030Z,16.03
2022-11-02T10:14:47.861Z,15.57
2022-11-02T10:20:45.875Z,11.87
2022-11-02T10:25:53.433Z,12.93
2022-11-02T10:36:25.129Z,8.97
2022-11-02T10:42:03.877Z,14.53
2022-11-02T10:47:28.652Z,11.03
2022-11-02T11:41:04.128Z,16.27
2022-11-02T11:46:17.073Z,5.80
2022-11-02T11:51:31.243Z,7.67
2022-11-02T11:56:37.110Z,6.13
2022-11-02T12:01:42.526Z,8.80
2022-11-02T12:06:50.929Z,9.13
2022-11-02T12:12:17.268Z,8.70
2022-11-02T12:17:43.489Z,6.13
2022-11-02T12:23:11.262Z,12.07
2022-11-02T12:28:22.206Z,8.90
2022-11-02T12:33:39.682Z,8.83
2022-11-02T12:39:12.151Z,5.73
2022-11-02T12:44:27.358Z,6.60
2022-11-02T12:49:36.312Z,6.73
2022-11-02T12:54:45.225Z,8.07
2022-11-02T12:59:55.065Z,5.40
2022-11-02T13:05:03.313Z,5.57
2022-11-02T13:10:23.576Z,6.93
2022-11-02T13:15:31.240Z,9.37
2022-11-02T13:20:39.473Z,3.37
2022-11-02T13:25:47.669Z,4.63
2022-11-02T13:30:54.623Z,5.80
2022-11-02T13:35:59.807Z,2.67
2022-11-02T13:41:27.331Z,5.20
2022-11-02T13:46:57.755Z,5.23
2022-11-02T13:52:15.081Z,9.27
2022-11-02T13:57:44.705Z,5.47
2022-11-02T14:03:06.494Z,2.30
2022-11-02T14:08:14.483Z,10.60
2022-11-02T14:13:22.689Z,4.30
2022-11-02T14:18:31.685Z,4.13
2022-11-02T14:23:38.806Z,9.63
2022-11-02T14:29:05.057Z,11.50
2022-11-02T14:34:25.292Z,4.30
2022-11-02T14:39:42.735Z,7.30
2022-11-02T14:45:02.942Z,1.80
2022-11-02T14:50:17.106Z,7.80
2022-11-02T14:55:28.547Z,6.50
2022-11-02T15:00:51.725Z,4.13
2022-11-02T15:06:09.034Z,3.40
2022-11-02T15:11:50.203Z,4.37
2022-11-02T15:16:58.809Z,4.73
2022-11-02T15:22:34.980Z,7.03
2022-11-02T15:27:45.894Z,5.40
2022-11-02T15:33:02.222Z,5.97
2022-11-02T15:38:17.633Z,3.50
2022-11-02T15:43:26.262Z,8.13
2022-11-02T15:48:50.788Z,3.53
2022-11-02T15:54:12.888Z,3.03
2022-11-02T15:59:33.318Z,6.83
2022-11-02T16:04:43.812Z,4.77
2022-11-02T16:09:50.611Z,10.90
2022-11-02T16:15:05.387Z,4.83
2022-11-02T16:20:13.963Z,7.40
2022-11-02T16:25:22.502Z,5.33
2022-11-02T16:30:28.179Z,4.23
2022-11-02T16:35:34.220Z,8.93
2022-11-02T16:40:39.702Z,15.37
2022-11-02T16:45:46.493Z,9.33
2022-11-02T16:51:14.457Z,13.40
2022-11-02T16:56:32.832Z,5.33
2022-11-02T17:01:40.923Z,5.60
2022-11-02T17:06:49.170Z,7.40
2022-11-02T17:11:57.709Z,8.57
2022-11-02T17:17:08.636Z,7.10
2022-11-02T17:22:19.825Z,8.07
2022-11-02T17:27:29.030Z,11.07
2022-11-02T17:32:34.294Z,4.23
2022-11-02T17:37:42.523Z,8.20
2022-11-02T17:43:02.646Z,8.50
2022-11-02T17:48:11.367Z,5.80
2022-11-02T17:53:16.665Z,5.87
2022-11-02T17:58:22.633Z,3.40
2022-11-02T18:03:31.144Z,3.33
2022-11-02T18:08:37.008Z,7.33
2022-11-02T18:13:42.185Z,8.07
2022-11-02T18:18:47.582Z,7.63
2022-11-02T18:23:53.018Z,4.13
2022-11-02T18:28:58.276Z,7.30
2022-11-02T18:34:06.109Z,3.90
2022-11-02T18:44:51.950Z,10.20
2022-11-02T18:50:02.508Z,5.87
2022-11-02T18:55:21.249Z,5.73
2022-11-02T19:00:26.065Z,6.37
2022-11-02T19:05:35.139Z,26.10
2022-11-02T19:10:42.019Z,22.33
2022-11-02T19:15:47.185Z,19.17
2022-11-02T19:20:52.415Z,14.53
2022-11-02T19:25:57.651Z,12.67
2022-11-02T19:31:08.565Z,4.47
2022-11-02T19:36:18.911Z,6.20
2022-11-02T19:41:43.607Z,9.07
2022-11-02T19:47:07.655Z,4.60
2022-11-02T19:58:01.055Z,6.27
2022-11-02T20:03:32.405Z,7.80
2022-11-02T20:14:44.107Z,5.53
2022-11-02T20:20:07.115Z,4.23
2022-11-02T20:25:38.570Z,1.87
2022-11-02T20:31:13.870Z,10.47
2022-11-02T20:36:28.810Z,3.77
2022-11-02T20:42:06.448Z,2.20
2022-11-02T20:47:47.611Z,3.40
2022-11-02T20:53:04.493Z,6.23
2022-11-02T20:58:29.861Z,4.30
2022-11-02T21:04:07.831Z,6.20
2022-11-02T21:15:19.061Z,2.53
2022-11-02T21:26:24.812Z,1.30
2022-11-02T21:31:57.436Z,2.37
2022-11-02T21:37:36.038Z,4.90
2022-11-02T21:43:00.753Z,4.37
2022-11-02T21:48:12.907Z,1.93
2022-11-02T21:53:27.459Z,2.40
2022-11-02T21:58:45.952Z,1.20
2022-11-02T22:15:38.546Z,3.77
2022-11-02T22:21:08.756Z,3.10
2022-11-02T22:26:40.743Z,3.37
2022-11-02T22:31:53.808Z,4.53
2022-11-02T22:37:41.871Z,1.53
2022-11-02T22:43:00.170Z,8.33
2022-11-02T22:48:13.789Z,5.93
2022-11-02T22:53:33.678Z,1.50
2022-11-02T22:58:41.177Z,4.17
2022-11-02T23:04:04.333Z,3.00
2022-11-02T23:09:43.676Z,2.33
2022-11-02T23:15:03.199Z,2.50
2022-11-02T23:20:20.087Z,3.73
2022-11-02T23:25:31.667Z,2.23
2022-11-02T23:31:09.331Z,4.23
2022-11-02T23:36:40.057Z,4.63
2022-11-02T23:41:49.331Z,4.53
2022-11-02T23:47:05.421Z,1.43
2022-11-02T23:52:38.364Z,2.10
2022-11-02T23:58:07.539Z,4.10
